sensor_id;sensor_type;location;lat;lon;timestamp;P1;durP1;ratioP1;P2;durP2;ratioP2
5026;SDS011;2532;52.480;13.354;2024-03-23T00:55:36;19.27;;;4.70;;
5026;SDS011;2532;52.480;13.354;2024-03-23T00:58:03;15.73;;;4.70;;
5026;SDS011;2532;52.480;13.354;2024-03-23T01:00:29;15.23;;;4.73;;
5026;SDS011;2532;52.480;13.354;2024-03-23T01:02:56;16.10;;;4.60;;
5026;SDS011;2532;52.480;13.354;2024-03-23T01:05:22;13.63;;;4.40;;
5026;SDS011;2532;52.480;13.354;2024-03-23T01:07:49;12.13;;;4.17;;
5026;SDS011;2532;52.480;13.354;2024-03-23T01:10:15;16.30;;;4.20;;
5026;SDS011;2532;52.480;13.354;2024-03-23T01:12:44;19.50;;;6.30;;
5026;SDS011;2532;52.480;13.354;2024-03-23T01:15:11;18.20;;;4.70;;
5026;SDS011;2532;52.480;13.354;2024-03-23T01:17:38;16.40;;;4.33;;
5026;SDS011;2532;52.480;13.354;2024-03-23T01:20:04;16.23;;;4.90;;
5026;SDS011;2532;52.480;13.354;2024-03-23T01:22:35;28.00;;;6.03;;
5026;SDS011;2532;52.480;13.354;2024-03-23T01:25:01;22.90;;;5.60;;
5026;SDS011;2532;52.480;13.354;2024-03-23T01:27:28;20.53;;;5.27;;
5026;SDS011;2532;52.480;13.354;2024-03-23T01:29:56;16.37;;;5.47;;
5026;SDS011;2532;52.480;13.354;2024-03-23T01:32:23;33.40;;;16.00;;
5026;SDS011;2532;52.480;13.354;2024-03-23T01:34:49;20.53;;;5.27;;
5026;SDS011;2532;52.480;13.354;2024-03-23T01:37:16;18.13;;;5.50;;
5026;SDS011;2532;52.480;13.354;2024-03-23T01:39:42;23.83;;;4.90;;
5026;SDS011;2532;52.480;13.354;2024-03-23T01:42:10;16.23;;;4.87;;
5026;SDS011;2532;52.480;13.354;2024-03-23T01:44:36;13.77;;;4.40;;
5026;SDS011;2532;52.480;13.354;2024-03-23T01:47:04;19.50;;;4.87;;
5026;SDS011;2532;52.480;13.354;2024-03-23T01:49:32;20.70;;;6.43;;
5026;SDS011;2532;52.480;13.354;2024-03-23T01:51:59;17.47;;;5.33;;
5026;SDS011;2532;52.480;13.354;2024-03-23T01:54:25;16.63;;;5.97;;
5026;SDS011;2532;52.480;13.354;2024-03-23T01:56:53;15.13;;;4.70;;
5026;SDS011;2532;52.480;13.354;2024-03-23T01:59:20;17.53;;;4.90;;
5026;SDS011;2532;52.480;13.354;2024-03-23T02:01:48;19.60;;;5.20;;
5026;SDS011;2532;52.480;13.354;2024-03-23T02:04:19;14.83;;;4.80;;
5026;SDS011;2532;52.480;13.354;2024-03-23T02:06:46;25.87;;;5.23;;
5026;SDS011;2532;52.480;13.354;2024-03-23T02:09:13;18.63;;;5.40;;
5026;SDS011;2532;52.480;13.354;2024-03-23T02:11:41;24.40;;;4.97;;
5026;SDS011;2532;52.480;13.354;2024-03-23T02:14:06;13.80;;;4.90;;
5026;SDS011;2532;52.480;13.354;2024-03-23T02:16:34;17.80;;;5.30;;
5026;SDS011;2532;52.480;13.354;2024-03-23T02:19:00;12.80;;;4.53;;
5026;SDS011;2532;52.480;13.354;2024-03-23T02:21:28;17.33;;;5.40;;
5026;SDS011;2532;52.480;13.354;2024-03-23T02:23:58;21.90;;;4.97;;
5026;SDS011;2532;52.480;13.354;2024-03-23T02:26:25;17.83;;;4.87;;
5026;SDS011;2532;52.480;13.354;2024-03-23T02:28:54;13.40;;;4.70;;
5026;SDS011;2532;52.480;13.354;2024-03-23T02:31:21;27.13;;;4.67;;
5026;SDS011;2532;52.480;13.354;2024-03-23T02:33:47;24.70;;;5.90;;
5026;SDS011;2532;52.480;13.354;2024-03-23T02:36:14;10.93;;;4.70;;
5026;SDS011;2532;52.480;13.354;2024-03-23T02:38:40;18.57;;;4.40;;
5026;SDS011;2532;52.480;13.354;2024-03-23T02:41:09;21.83;;;5.40;;
5026;SDS011;2532;52.480;13.354;2024-03-23T02:43:35;20.97;;;5.33;;
5026;SDS011;2532;52.480;13.354;2024-03-23T02:46:02;18.53;;;5.97;;
5026;SDS011;2532;52.480;13.354;2024-03-23T02:48:30;18.33;;;5.17;;
5026;SDS011;2532;52.480;13.354;2024-03-23T02:50:56;17.43;;;5.77;;
5026;SDS011;2532;52.480;13.354;2024-03-23T02:53:23;19.30;;;5.60;;
5026;SDS011;2532;52.480;13.354;2024-03-23T02:55:49;17.50;;;4.90;;
5026;SDS011;2532;52.480;13.354;2024-03-23T02:58:18;15.20;;;3.93;;
5026;SDS011;2532;52.480;13.354;2024-03-23T03:00:44;14.40;;;5.10;;
5026;SDS011;2532;52.480;13.354;2024-03-23T03:03:14;21.50;;;5.87;;
5026;SDS011;2532;52.480;13.354;2024-03-23T03:05:40;17.13;;;5.20;;
5026;SDS011;2532;52.480;13.354;2024-03-23T03:08:08;26.93;;;6.10;;
5026;SDS011;2532;52.480;13.354;2024-03-23T03:10:34;18.50;;;4.70;;
5026;SDS011;2532;52.480;13.354;2024-03-23T03:13:02;17.93;;;5.07;;
5026;SDS011;2532;52.480;13.354;2024-03-23T03:15:29;26.87;;;5.07;;
5026;SDS011;2532;52.480;13.354;2024-03-23T03:17:57;17.77;;;5.60;;
5026;SDS011;2532;52.480;13.354;2024-03-23T03:20:23;18.37;;;5.17;;
5026;SDS011;2532;52.480;13.354;2024-03-23T03:22:50;13.77;;;5.33;;
5026;SDS011;2532;52.480;13.354;2024-03-23T03:25:18;14.30;;;5.07;;
5026;SDS011;2532;52.480;13.354;2024-03-23T03:27:45;21.97;;;4.90;;
5026;SDS011;2532;52.480;13.354;2024-03-23T03:30:12;16.70;;;4.27;;
5026;SDS011;2532;52.480;13.354;2024-03-23T03:32:41;12.10;;;4.60;;
5026;SDS011;2532;52.480;13.354;2024-03-23T03:35:07;16.63;;;5.37;;
5026;SDS011;2532;52.480;13.354;2024-03-23T03:37:37;13.80;;;4.90;;
5026;SDS011;2532;52.480;13.354;2024-03-23T03:40:03;12.90;;;4.57;;
5026;SDS011;2532;52.480;13.354;2024-03-23T03:42:33;29.30;;;5.40;;
5026;SDS011;2532;52.480;13.354;2024-03-23T03:44:59;15.80;;;4.90;;
5026;SDS011;2532;52.480;13.354;2024-03-23T03:47:26;12.47;;;4.70;;
5026;SDS011;2532;52.480;13.354;2024-03-23T03:49:54;19.30;;;5.13;;
5026;SDS011;2532;52.480;13.354;2024-03-23T03:52:21;21.93;;;4.80;;
5026;SDS011;2532;52.480;13.354;2024-03-23T03:54:47;13.60;;;3.83;;
5026;SDS011;2532;52.480;13.354;2024-03-23T03:57:14;20.17;;;5.10;;
5026;SDS011;2532;52.480;13.354;2024-03-23T03:59:40;17.13;;;4.77;;
5026;SDS011;2532;52.480;13.354;2024-03-23T04:02:07;21.67;;;5.23;;
5026;SDS011;2532;52.480;13.354;2024-03-23T04:04:33;23.50;;;4.00;;
5026;SDS011;2532;52.480;13.354;2024-03-23T04:07:02;17.13;;;4.77;;
5026;SDS011;2532;52.480;13.354;2024-03-23T04:09:30;17.80;;;4.30;;
5026;SDS011;2532;52.480;13.354;2024-03-23T04:11:57;16.33;;;5.07;;
5026;SDS011;2532;52.480;13.354;2024-03-23T04:14:23;16.20;;;4.00;;
5026;SDS011;2532;52.480;13.354;2024-03-23T04:16:50;19.93;;;4.73;;
5026;SDS011;2532;52.480;13.354;2024-03-23T04:19:16;23.90;;;5.20;;
5026;SDS011;2532;52.480;13.354;2024-03-23T04:21:43;15.67;;;4.57;;
5026;SDS011;2532;52.480;13.354;2024-03-23T04:24:11;16.10;;;3.83;;
5026;SDS011;2532;52.480;13.354;2024-03-23T04:26:41;15.10;;;3.77;;
5026;SDS011;2532;52.480;13.354;2024-03-23T04:29:07;6.80;;;3.33;;
5026;SDS011;2532;52.480;13.354;2024-03-23T04:31:34;15.97;;;3.83;;
5026;SDS011;2532;52.480;13.354;2024-03-23T04:34:00;13.10;;;3.83;;
5026;SDS011;2532;52.480;13.354;2024-03-23T04:36:28;12.00;;;3.43;;
5026;SDS011;2532;52.480;13.354;2024-03-23T04:38:53;12.23;;;3.63;;
5026;SDS011;2532;52.480;13.354;2024-03-23T04:41:22;13.63;;;4.10;;
5026;SDS011;2532;52.480;13.354;2024-03-23T04:43:51;12.53;;;4.20;;
5026;SDS011;2532;52.480;13.354;2024-03-23T04:46:18;10.43;;;3.40;;
5026;SDS011;2532;52.480;13.354;2024-03-23T04:48:45;11.10;;;3.93;;
5026;SDS011;2532;52.480;13.354;2024-03-23T04:51:19;14.00;;;4.37;;
5026;SDS011;2532;52.480;13.354;2024-03-23T04:53:47;10.07;;;3.00;;
5026;SDS011;2532;52.480;13.354;2024-03-23T04:56:14;14.33;;;4.03;;
5026;SDS011;2532;52.480;13.354;2024-03-23T04:58:43;13.20;;;3.90;;
5026;SDS011;2532;52.480;13.354;2024-03-23T05:01:10;7.50;;;3.83;;
5026;SDS011;2532;52.480;13.354;2024-03-23T05:03:37;7.57;;;3.37;;
5026;SDS011;2532;52.480;13.354;2024-03-23T05:06:04;9.03;;;3.20;;
5026;SDS011;2532;52.480;13.354;2024-03-23T05:08:31;11.07;;;3.63;;
5026;SDS011;2532;52.480;13.354;2024-03-23T05:10:57;7.33;;;3.07;;
5026;SDS011;2532;52.480;13.354;2024-03-23T05:13:24;12.50;;;4.13;;
5026;SDS011;2532;52.480;13.354;2024-03-23T05:15:54;9.80;;;2.83;;
5026;SDS011;2532;52.480;13.354;2024-03-23T05:18:20;10.00;;;3.20;;
5026;SDS011;2532;52.480;13.354;2024-03-23T05:20:47;9.40;;;3.57;;
5026;SDS011;2532;52.480;13.354;2024-03-23T05:23:14;10.40;;;3.57;;
5026;SDS011;2532;52.480;13.354;2024-03-23T05:25:43;10.53;;;3.97;;
5026;SDS011;2532;52.480;13.354;2024-03-23T05:28:09;12.93;;;4.40;;
5026;SDS011;2532;52.480;13.354;2024-03-23T05:30:36;10.47;;;4.20;;
5026;SDS011;2532;52.480;13.354;2024-03-23T05:33:04;16.83;;;4.23;;
5026;SDS011;2532;52.480;13.354;2024-03-23T05:35:31;9.70;;;3.40;;
5026;SDS011;2532;52.480;13.354;2024-03-23T05:37:57;9.97;;;3.50;;
5026;SDS011;2532;52.480;13.354;2024-03-23T05:40:25;11.60;;;3.40;;
5026;SDS011;2532;52.480;13.354;2024-03-23T05:42:52;12.70;;;4.37;;
5026;SDS011;2532;52.480;13.354;2024-03-23T05:45:20;13.53;;;3.73;;
5026;SDS011;2532;52.480;13.354;2024-03-23T05:47:47;10.30;;;2.80;;
5026;SDS011;2532;52.480;13.354;2024-03-23T05:50:16;10.90;;;3.60;;
5026;SDS011;2532;52.480;13.354;2024-03-23T05:52:43;14.13;;;4.27;;
5026;SDS011;2532;52.480;13.354;2024-03-23T05:55:10;10.80;;;2.90;;
5026;SDS011;2532;52.480;13.354;2024-03-23T05:57:36;6.77;;;3.63;;
5026;SDS011;2532;52.480;13.354;2024-03-23T06:00:04;11.77;;;3.47;;
5026;SDS011;2532;52.480;13.354;2024-03-23T06:02:35;10.10;;;3.37;;
5026;SDS011;2532;52.480;13.354;2024-03-23T06:05:05;8.53;;;3.43;;
5026;SDS011;2532;52.480;13.354;2024-03-23T06:07:34;12.00;;;3.17;;
5026;SDS011;2532;52.480;13.354;2024-03-23T06:10:01;14.27;;;4.00;;
5026;SDS011;2532;52.480;13.354;2024-03-23T06:12:27;7.80;;;3.10;;
5026;SDS011;2532;52.480;13.354;2024-03-23T06:14:54;11.97;;;3.77;;
5026;SDS011;2532;52.480;13.354;2024-03-23T06:17:20;12.10;;;4.10;;
5026;SDS011;2532;52.480;13.354;2024-03-23T06:19:47;7.33;;;3.67;;
5026;SDS011;2532;52.480;13.354;2024-03-23T06:22:15;11.70;;;3.90;;
5026;SDS011;2532;52.480;13.354;2024-03-23T06:24:43;13.70;;;3.27;;
5026;SDS011;2532;52.480;13.354;2024-03-23T06:27:10;8.83;;;3.30;;
5026;SDS011;2532;52.480;13.354;2024-03-23T06:29:37;9.20;;;3.53;;
5026;SDS011;2532;52.480;13.354;2024-03-23T06:32:03;10.87;;;3.43;;
5026;SDS011;2532;52.480;13.354;2024-03-23T06:34:30;8.10;;;2.93;;
5026;SDS011;2532;52.480;13.354;2024-03-23T06:36:56;10.80;;;2.90;;
5026;SDS011;2532;52.480;13.354;2024-03-23T06:39:23;6.40;;;2.93;;
5026;SDS011;2532;52.480;13.354;2024-03-23T06:41:54;6.50;;;2.77;;
5026;SDS011;2532;52.480;13.354;2024-03-23T06:44:21;16.80;;;3.00;;
5026;SDS011;2532;52.480;13.354;2024-03-23T06:46:47;7.40;;;3.37;;
5026;SDS011;2532;52.480;13.354;2024-03-23T06:49:15;8.27;;;3.90;;
5026;SDS011;2532;52.480;13.354;2024-03-23T06:51:41;10.17;;;3.77;;
5026;SDS011;2532;52.480;13.354;2024-03-23T06:54:11;10.33;;;3.23;;
5026;SDS011;2532;52.480;13.354;2024-03-23T06:56:38;6.97;;;3.30;;
5026;SDS011;2532;52.480;13.354;2024-03-23T06:59:06;6.60;;;3.30;;
5026;SDS011;2532;52.480;13.354;2024-03-23T07:01:32;9.17;;;4.00;;
5026;SDS011;2532;52.480;13.354;2024-03-23T07:04:00;6.00;;;3.13;;
5026;SDS011;2532;52.480;13.354;2024-03-23T07:06:26;8.83;;;3.40;;
5026;SDS011;2532;52.480;13.354;2024-03-23T07:09:00;8.00;;;2.90;;
5026;SDS011;2532;52.480;13.354;2024-03-23T07:11:36;7.60;;;3.20;;
5026;SDS011;2532;52.480;13.354;2024-03-23T07:14:11;6.27;;;2.77;;
5026;SDS011;2532;52.480;13.354;2024-03-23T07:16:37;13.90;;;3.73;;
5026;SDS011;2532;52.480;13.354;2024-03-23T07:19:04;12.30;;;3.80;;
5026;SDS011;2532;52.480;13.354;2024-03-23T07:21:30;7.80;;;3.30;;
5026;SDS011;2532;52.480;13.354;2024-03-23T07:23:57;8.30;;;4.23;;
5026;SDS011;2532;52.480;13.354;2024-03-23T07:26:24;8.70;;;3.37;;
5026;SDS011;2532;52.480;13.354;2024-03-23T07:28:52;12.50;;;4.00;;
5026;SDS011;2532;52.480;13.354;2024-03-23T07:31:22;11.47;;;3.77;;
5026;SDS011;2532;52.480;13.354;2024-03-23T07:33:50;11.33;;;4.40;;
5026;SDS011;2532;52.480;13.354;2024-03-23T07:36:16;11.37;;;4.00;;
5026;SDS011;2532;52.480;13.354;2024-03-23T07:38:46;7.33;;;3.67;;
5026;SDS011;2532;52.480;13.354;2024-03-23T07:41:14;6.37;;;3.50;;
5026;SDS011;2532;52.480;13.354;2024-03-23T07:43:43;7.27;;;3.00;;
5026;SDS011;2532;52.480;13.354;2024-03-23T07:46:10;16.67;;;4.00;;
5026;SDS011;2532;52.480;13.354;2024-03-23T07:48:39;8.07;;;3.27;;
5026;SDS011;2532;52.480;13.354;2024-03-23T07:51:08;7.03;;;3.47;;
5026;SDS011;2532;52.480;13.354;2024-03-23T07:53:37;12.67;;;3.77;;
5026;SDS011;2532;52.480;13.354;2024-03-23T07:56:12;10.43;;;3.73;;
5026;SDS011;2532;52.480;13.354;2024-03-23T07:58:40;12.63;;;3.30;;
5026;SDS011;2532;52.480;13.354;2024-03-23T08:01:07;12.77;;;3.67;;
5026;SDS011;2532;52.480;13.354;2024-03-23T08:03:36;8.03;;;3.23;;
5026;SDS011;2532;52.480;13.354;2024-03-23T08:06:10;9.33;;;2.73;;
5026;SDS011;2532;52.480;13.354;2024-03-23T08:08:39;12.07;;;4.60;;
5026;SDS011;2532;52.480;13.354;2024-03-23T08:11:05;14.60;;;4.63;;
5026;SDS011;2532;52.480;13.354;2024-03-23T08:13:33;16.27;;;4.77;;
5026;SDS011;2532;52.480;13.354;2024-03-23T08:16:04;11.60;;;4.63;;
5026;SDS011;2532;52.480;13.354;2024-03-23T08:18:32;12.77;;;4.30;;
5026;SDS011;2532;52.480;13.354;2024-03-23T08:21:07;10.17;;;4.90;;
5026;SDS011;2532;52.480;13.354;2024-03-23T08:23:36;12.00;;;4.00;;
5026;SDS011;2532;52.480;13.354;2024-03-23T08:26:03;8.00;;;3.50;;
5026;SDS011;2532;52.480;13.354;2024-03-23T08:28:32;10.13;;;4.30;;
5026;SDS011;2532;52.480;13.354;2024-03-23T08:31:00;8.67;;;4.10;;
5026;SDS011;2532;52.480;13.354;2024-03-23T08:33:28;11.03;;;4.00;;
5026;SDS011;2532;52.480;13.354;2024-03-23T08:35:57;13.20;;;4.30;;
5026;SDS011;2532;52.480;13.354;2024-03-23T08:38:27;7.80;;;3.70;;
5026;SDS011;2532;52.480;13.354;2024-03-23T08:43:58;9.60;;;4.17;;
5026;SDS011;2532;52.480;13.354;2024-03-23T08:46:39;11.93;;;4.90;;
5026;SDS011;2532;52.480;13.354;2024-03-23T08:49:06;8.57;;;4.37;;
5026;SDS011;2532;52.480;13.354;2024-03-23T08:51:41;10.20;;;4.60;;
5026;SDS011;2532;52.480;13.354;2024-03-23T08:54:12;16.07;;;4.63;;
5026;SDS011;2532;52.480;13.354;2024-03-23T08:56:39;11.60;;;4.10;;
5026;SDS011;2532;52.480;13.354;2024-03-23T08:59:06;11.63;;;4.70;;
5026;SDS011;2532;52.480;13.354;2024-03-23T09:01:33;12.20;;;5.00;;
5026;SDS011;2532;52.480;13.354;2024-03-23T09:04:00;15.87;;;4.60;;
5026;SDS011;2532;52.480;13.354;2024-03-23T09:06:26;12.10;;;4.27;;
5026;SDS011;2532;52.480;13.354;2024-03-23T09:08:54;8.03;;;3.90;;
5026;SDS011;2532;52.480;13.354;2024-03-23T09:11:20;12.97;;;4.00;;
5026;SDS011;2532;52.480;13.354;2024-03-23T09:13:50;9.37;;;4.30;;
5026;SDS011;2532;52.480;13.354;2024-03-23T09:16:23;8.77;;;4.33;;
5026;SDS011;2532;52.480;13.354;2024-03-23T09:18:50;7.10;;;4.10;;
5026;SDS011;2532;52.480;13.354;2024-03-23T09:21:17;11.43;;;3.87;;
5026;SDS011;2532;52.480;13.354;2024-03-23T09:23:45;11.47;;;4.30;;
5026;SDS011;2532;52.480;13.354;2024-03-23T09:26:15;8.63;;;4.07;;
5026;SDS011;2532;52.480;13.354;2024-03-23T09:28:42;8.37;;;4.27;;
5026;SDS011;2532;52.480;13.354;2024-03-23T09:31:10;9.70;;;3.20;;
5026;SDS011;2532;52.480;13.354;2024-03-23T09:33:40;12.97;;;4.30;;
5026;SDS011;2532;52.480;13.354;2024-03-23T09:36:07;8.97;;;3.97;;
5026;SDS011;2532;52.480;13.354;2024-03-23T09:38:34;11.90;;;4.20;;
5026;SDS011;2532;52.480;13.354;2024-03-23T09:41:06;10.80;;;3.67;;
5026;SDS011;2532;52.480;13.354;2024-03-23T09:43:34;9.70;;;4.07;;
5026;SDS011;2532;52.480;13.354;2024-03-23T09:46:01;10.60;;;4.47;;
5026;SDS011;2532;52.480;13.354;2024-03-23T09:48:32;10.63;;;3.90;;
5026;SDS011;2532;52.480;13.354;2024-03-23T09:51:02;7.97;;;4.30;;
5026;SDS011;2532;52.480;13.354;2024-03-23T09:53:29;8.23;;;3.33;;
5026;SDS011;2532;52.480;13.354;2024-03-23T09:55:56;11.03;;;4.60;;
5026;SDS011;2532;52.480;13.354;2024-03-23T09:58:24;14.30;;;5.43;;
5026;SDS011;2532;52.480;13.354;2024-03-23T10:00:50;12.20;;;4.50;;
5026;SDS011;2532;52.480;13.354;2024-03-23T10:03:17;8.07;;;3.87;;
5026;SDS011;2532;52.480;13.354;2024-03-23T10:05:46;14.10;;;4.53;;
5026;SDS011;2532;52.480;13.354;2024-03-23T10:08:17;7.80;;;3.73;;
5026;SDS011;2532;52.480;13.354;2024-03-23T10:10:45;11.90;;;4.00;;
5026;SDS011;2532;52.480;13.354;2024-03-23T10:13:14;10.80;;;3.10;;
5026;SDS011;2532;52.480;13.354;2024-03-23T10:15:55;8.80;;;4.00;;
5026;SDS011;2532;52.480;13.354;2024-03-23T10:18:22;7.47;;;3.73;;
5026;SDS011;2532;52.480;13.354;2024-03-23T10:21:06;13.17;;;4.83;;
5026;SDS011;2532;52.480;13.354;2024-03-23T10:23:37;7.20;;;2.80;;
5026;SDS011;2532;52.480;13.354;2024-03-23T10:26:18;8.60;;;4.63;;
5026;SDS011;2532;52.480;13.354;2024-03-23T10:28:53;13.63;;;3.90;;
5026;SDS011;2532;52.480;13.354;2024-03-23T10:31:22;13.70;;;4.30;;
5026;SDS011;2532;52.480;13.354;2024-03-23T10:33:50;9.23;;;4.30;;
5026;SDS011;2532;52.480;13.354;2024-03-23T10:36:21;11.17;;;4.00;;
5026;SDS011;2532;52.480;13.354;2024-03-23T10:38:49;9.10;;;4.20;;
5026;SDS011;2532;52.480;13.354;2024-03-23T10:41:17;9.40;;;4.40;;
5026;SDS011;2532;52.480;13.354;2024-03-23T10:43:45;8.43;;;4.83;;
5026;SDS011;2532;52.480;13.354;2024-03-23T10:46:13;12.07;;;4.50;;
5026;SDS011;2532;52.480;13.354;2024-03-23T10:48:42;9.60;;;4.33;;
5026;SDS011;2532;52.480;13.354;2024-03-23T10:51:11;9.60;;;4.27;;
5026;SDS011;2532;52.480;13.354;2024-03-23T10:53:43;8.20;;;4.00;;
5026;SDS011;2532;52.480;13.354;2024-03-23T10:56:18;10.30;;;4.60;;
5026;SDS011;2532;52.480;13.354;2024-03-23T10:58:46;13.77;;;3.97;;
5026;SDS011;2532;52.480;13.354;2024-03-23T11:01:15;8.90;;;4.10;;
5026;SDS011;2532;52.480;13.354;2024-03-23T11:03:44;12.20;;;4.40;;
5026;SDS011;2532;52.480;13.354;2024-03-23T11:06:33;9.03;;;4.63;;
5026;SDS011;2532;52.480;13.354;2024-03-23T11:09:03;11.73;;;4.47;;
5026;SDS011;2532;52.480;13.354;2024-03-23T11:11:33;5.83;;;4.40;;
5026;SDS011;2532;52.480;13.354;2024-03-23T11:13:59;8.57;;;4.20;;
5026;SDS011;2532;52.480;13.354;2024-03-23T11:16:27;12.20;;;3.87;;
5026;SDS011;2532;52.480;13.354;2024-03-23T11:19:32;7.93;;;4.13;;
5026;SDS011;2532;52.480;13.354;2024-03-23T11:22:04;8.10;;;4.07;;
5026;SDS011;2532;52.480;13.354;2024-03-23T11:24:31;7.70;;;3.77;;
5026;SDS011;2532;52.480;13.354;2024-03-23T11:26:59;8.40;;;3.73;;
5026;SDS011;2532;52.480;13.354;2024-03-23T11:29:41;7.80;;;4.30;;
5026;SDS011;2532;52.480;13.354;2024-03-23T11:32:08;13.50;;;6.97;;
5026;SDS011;2532;52.480;13.354;2024-03-23T11:34:38;7.37;;;4.00;;
5026;SDS011;2532;52.480;13.354;2024-03-23T11:37:07;12.20;;;4.57;;
5026;SDS011;2532;52.480;13.354;2024-03-23T11:39:33;10.00;;;3.63;;
5026;SDS011;2532;52.480;13.354;2024-03-23T11:42:00;7.33;;;3.97;;
5026;SDS011;2532;52.480;13.354;2024-03-23T11:44:30;5.30;;;3.30;;
5026;SDS011;2532;52.480;13.354;2024-03-23T11:47:12;7.10;;;3.50;;
5026;SDS011;2532;52.480;13.354;2024-03-23T11:49:38;8.97;;;3.53;;
5026;SDS011;2532;52.480;13.354;2024-03-23T11:52:11;10.70;;;4.27;;
5026;SDS011;2532;52.480;13.354;2024-03-23T11:54:37;8.83;;;4.37;;
5026;SDS011;2532;52.480;13.354;2024-03-23T11:57:09;11.17;;;4.40;;
5026;SDS011;2532;52.480;13.354;2024-03-23T11:59:37;9.93;;;3.90;;
5026;SDS011;2532;52.480;13.354;2024-03-23T12:02:10;12.00;;;4.07;;
5026;SDS011;2532;52.480;13.354;2024-03-23T12:04:42;9.50;;;4.07;;
5026;SDS011;2532;52.480;13.354;2024-03-23T12:07:11;11.40;;;3.87;;
5026;SDS011;2532;52.480;13.354;2024-03-23T12:09:38;9.93;;;4.20;;
5026;SDS011;2532;52.480;13.354;2024-03-23T12:12:07;10.53;;;4.30;;
5026;SDS011;2532;52.480;13.354;2024-03-23T12:14:43;9.03;;;3.50;;
5026;SDS011;2532;52.480;13.354;2024-03-23T12:17:14;17.90;;;4.77;;
5026;SDS011;2532;52.480;13.354;2024-03-23T12:19:47;9.00;;;3.47;;
5026;SDS011;2532;52.480;13.354;2024-03-23T12:22:21;8.53;;;3.50;;
5026;SDS011;2532;52.480;13.354;2024-03-23T12:24:53;15.17;;;4.20;;
5026;SDS011;2532;52.480;13.354;2024-03-23T12:27:23;8.37;;;4.60;;
5026;SDS011;2532;52.480;13.354;2024-03-23T12:29:50;10.00;;;3.97;;
5026;SDS011;2532;52.480;13.354;2024-03-23T12:32:16;9.37;;;4.20;;
5026;SDS011;2532;52.480;13.354;2024-03-23T12:34:45;12.03;;;3.50;;
5026;SDS011;2532;52.480;13.354;2024-03-23T12:37:12;11.60;;;3.43;;
5026;SDS011;2532;52.480;13.354;2024-03-23T12:39:41;8.53;;;3.73;;
5026;SDS011;2532;52.480;13.354;2024-03-23T12:42:07;7.27;;;3.17;;
5026;SDS011;2532;52.480;13.354;2024-03-23T12:44:35;6.73;;;4.00;;
5026;SDS011;2532;52.480;13.354;2024-03-23T12:47:03;5.27;;;2.37;;
5026;SDS011;2532;52.480;13.354;2024-03-23T12:49:35;4.83;;;2.80;;
5026;SDS011;2532;52.480;13.354;2024-03-23T12:52:02;4.50;;;2.20;;
5026;SDS011;2532;52.480;13.354;2024-03-23T12:54:33;9.87;;;3.70;;
5026;SDS011;2532;52.480;13.354;2024-03-23T12:57:01;5.40;;;2.80;;
5026;SDS011;2532;52.480;13.354;2024-03-23T12:59:28;5.40;;;2.50;;
5026;SDS011;2532;52.480;13.354;2024-03-23T13:01:54;6.63;;;3.30;;
5026;SDS011;2532;52.480;13.354;2024-03-23T13:04:21;3.87;;;2.90;;
5026;SDS011;2532;52.480;13.354;2024-03-23T13:06:48;9.90;;;3.27;;
5026;SDS011;2532;52.480;13.354;2024-03-23T13:09:23;7.57;;;3.30;;
5026;SDS011;2532;52.480;13.354;2024-03-23T13:11:49;8.23;;;3.50;;
5026;SDS011;2532;52.480;13.354;2024-03-23T13:14:18;7.47;;;3.37;;
5026;SDS011;2532;52.480;13.354;2024-03-23T13:16:50;7.93;;;3.10;;
5026;SDS011;2532;52.480;13.354;2024-03-23T13:19:17;6.73;;;2.90;;
5026;SDS011;2532;52.480;13.354;2024-03-23T13:21:57;9.97;;;3.67;;
5026;SDS011;2532;52.480;13.354;2024-03-23T13:24:26;8.83;;;3.77;;
5026;SDS011;2532;52.480;13.354;2024-03-23T13:26:54;10.47;;;3.10;;
5026;SDS011;2532;52.480;13.354;2024-03-23T13:29:23;12.47;;;3.60;;
5026;SDS011;2532;52.480;13.354;2024-03-23T13:31:51;16.23;;;4.50;;
5026;SDS011;2532;52.480;13.354;2024-03-23T13:34:18;8.47;;;4.27;;
5026;SDS011;2532;52.480;13.354;2024-03-23T13:36:46;8.57;;;3.47;;
5026;SDS011;2532;52.480;13.354;2024-03-23T13:39:14;18.03;;;4.70;;
5026;SDS011;2532;52.480;13.354;2024-03-23T13:41:50;16.60;;;4.53;;
5026;SDS011;2532;52.480;13.354;2024-03-23T13:44:33;13.30;;;4.50;;
5026;SDS011;2532;52.480;13.354;2024-03-23T13:47:05;12.10;;;4.90;;
5026;SDS011;2532;52.480;13.354;2024-03-23T13:49:32;9.77;;;3.90;;
5026;SDS011;2532;52.480;13.354;2024-03-23T13:51:59;11.20;;;4.63;;
5026;SDS011;2532;52.480;13.354;2024-03-23T13:54:25;7.50;;;4.50;;
5026;SDS011;2532;52.480;13.354;2024-03-23T13:56:59;10.03;;;3.83;;
5026;SDS011;2532;52.480;13.354;2024-03-23T13:59:29;11.60;;;4.30;;
5026;SDS011;2532;52.480;13.354;2024-03-23T14:01:59;10.07;;;4.70;;
5026;SDS011;2532;52.480;13.354;2024-03-23T14:04:25;11.93;;;4.40;;
5026;SDS011;2532;52.480;13.354;2024-03-23T14:06:52;12.20;;;4.50;;
5026;SDS011;2532;52.480;13.354;2024-03-23T14:09:18;12.43;;;3.73;;
5026;SDS011;2532;52.480;13.354;2024-03-23T14:11:50;14.33;;;4.40;;
5026;SDS011;2532;52.480;13.354;2024-03-23T14:14:17;15.27;;;5.13;;
5026;SDS011;2532;52.480;13.354;2024-03-23T14:16:48;10.40;;;4.77;;
5026;SDS011;2532;52.480;13.354;2024-03-23T14:19:17;9.40;;;4.03;;
5026;SDS011;2532;52.480;13.354;2024-03-23T14:21:44;9.47;;;4.20;;
5026;SDS011;2532;52.480;13.354;2024-03-23T14:24:10;10.20;;;4.37;;
5026;SDS011;2532;52.480;13.354;2024-03-23T14:26:37;9.30;;;4.80;;
5026;SDS011;2532;52.480;13.354;2024-03-23T14:29:04;12.97;;;4.40;;
5026;SDS011;2532;52.480;13.354;2024-03-23T14:31:31;17.07;;;5.53;;
5026;SDS011;2532;52.480;13.354;2024-03-23T14:33:58;10.53;;;4.63;;
5026;SDS011;2532;52.480;13.354;2024-03-23T14:36:26;10.50;;;4.23;;
5026;SDS011;2532;52.480;13.354;2024-03-23T14:38:52;12.57;;;4.53;;
5026;SDS011;2532;52.480;13.354;2024-03-23T14:41:20;12.23;;;4.50;;
5026;SDS011;2532;52.480;13.354;2024-03-23T14:43:46;7.53;;;3.87;;
5026;SDS011;2532;52.480;13.354;2024-03-23T14:46:15;8.30;;;4.17;;
5026;SDS011;2532;52.480;13.354;2024-03-23T14:48:42;12.20;;;4.00;;
5026;SDS011;2532;52.480;13.354;2024-03-23T14:51:12;10.13;;;4.93;;
5026;SDS011;2532;52.480;13.354;2024-03-23T14:53:39;10.80;;;4.70;;
5026;SDS011;2532;52.480;13.354;2024-03-23T14:56:08;10.17;;;4.60;;
5026;SDS011;2532;52.480;13.354;2024-03-23T14:58:43;8.63;;;5.23;;
5026;SDS011;2532;52.480;13.354;2024-03-23T15:01:11;6.20;;;3.20;;
5026;SDS011;2532;52.480;13.354;2024-03-23T15:03:41;7.67;;;3.80;;
5026;SDS011;2532;52.480;13.354;2024-03-23T15:06:09;5.60;;;3.50;;
5026;SDS011;2532;52.480;13.354;2024-03-23T15:08:41;6.33;;;3.40;;
5026;SDS011;2532;52.480;13.354;2024-03-23T15:11:08;8.93;;;5.70;;
5026;SDS011;2532;52.480;13.354;2024-03-23T15:13:36;8.93;;;3.10;;
5026;SDS011;2532;52.480;13.354;2024-03-23T15:16:16;7.73;;;2.90;;
5026;SDS011;2532;52.480;13.354;2024-03-23T15:18:45;5.30;;;3.20;;
5026;SDS011;2532;52.480;13.354;2024-03-23T15:21:11;5.90;;;3.43;;
5026;SDS011;2532;52.480;13.354;2024-03-23T15:23:46;7.87;;;2.77;;
5026;SDS011;2532;52.480;13.354;2024-03-23T15:26:12;4.03;;;2.60;;
5026;SDS011;2532;52.480;13.354;2024-03-23T15:31:07;9.73;;;5.07;;
5026;SDS011;2532;52.480;13.354;2024-03-23T15:33:35;7.93;;;4.43;;
5026;SDS011;2532;52.480;13.354;2024-03-23T15:36:01;12.10;;;3.87;;
5026;SDS011;2532;52.480;13.354;2024-03-23T15:38:30;8.13;;;4.50;;
5026;SDS011;2532;52.480;13.354;2024-03-23T15:40:58;6.40;;;4.50;;
5026;SDS011;2532;52.480;13.354;2024-03-23T15:43:25;7.63;;;4.03;;
5026;SDS011;2532;52.480;13.354;2024-03-23T15:45:55;10.73;;;4.70;;
5026;SDS011;2532;52.480;13.354;2024-03-23T15:48:22;7.60;;;4.17;;
5026;SDS011;2532;52.480;13.354;2024-03-23T15:50:52;5.60;;;4.20;;
5026;SDS011;2532;52.480;13.354;2024-03-23T15:53:19;10.70;;;4.87;;
5026;SDS011;2532;52.480;13.354;2024-03-23T15:55:45;9.07;;;3.43;;
5026;SDS011;2532;52.480;13.354;2024-03-23T15:58:13;6.60;;;3.47;;
5026;SDS011;2532;52.480;13.354;2024-03-23T16:00:42;6.97;;;3.63;;